createdAt,value
2022-11-09T00:01:29.827Z,5.32
2022-11-09T00:03:57.242Z,2.40
2022-11-09T00:06:24.088Z,2.40
2022-11-09T00:08:50.610Z,3.28
2022-11-09T00:11:17.508Z,2.97
2022-11-09T00:13:44.303Z,3.63
2022-11-09T00:16:12.611Z,3.25
2022-11-09T00:18:39.466Z,9.38
2022-11-09T00:21:09.909Z,2.50
2022-11-09T00:23:36.300Z,3.78
2022-11-09T00:26:03.695Z,2.83
2022-11-09T00:28:30.183Z,2.65
2022-11-09T00:31:04.787Z,4.53
2022-11-09T00:33:31.382Z,3.28
2022-11-09T00:35:57.891Z,2.55
2022-11-09T00:38:25.320Z,4.55
2022-11-09T00:40:51.672Z,2.67
2022-11-09T00:43:19.036Z,4.28
2022-11-09T00:45:46.877Z,2.70
2022-11-09T00:48:13.328Z,2.50
2022-11-09T00:50:41.634Z,4.53
2022-11-09T00:53:08.205Z,5.13
2022-11-09T00:55:34.581Z,2.63
2022-11-09T00:58:01.086Z,4.47
2022-11-09T01:00:27.970Z,4.05
2022-11-09T01:02:54.373Z,5.35
2022-11-09T01:05:20.837Z,3.25
2022-11-09T01:07:48.608Z,2.78
2022-11-09T01:10:15.005Z,2.33
2022-11-09T01:12:41.404Z,2.63
2022-11-09T01:15:08.124Z,1.42
2022-11-09T01:17:34.995Z,4.15
2022-11-09T01:20:01.401Z,2.90
2022-11-09T01:22:27.831Z,1.38
2022-11-09T01:24:54.572Z,2.28
2022-11-09T01:27:23.669Z,3.78
2022-11-09T01:29:50.038Z,1.30
2022-11-09T01:32:16.395Z,2.08
2022-11-09T01:34:43.517Z,3.45
2022-11-09T01:37:09.914Z,1.25
2022-11-09T01:39:36.273Z,2.55
2022-11-09T01:42:02.707Z,1.63
2022-11-09T01:44:29.652Z,2.65
2022-11-09T01:47:04.426Z,1.23
2022-11-09T01:49:40.875Z,1.98
2022-11-09T01:52:11.587Z,1.80
2022-11-09T01:54:40.472Z,2.45
2022-11-09T01:57:10.397Z,2.58
2022-11-09T01:59:38.922Z,2.17
2022-11-09T02:02:05.442Z,2.53
2022-11-09T02:04:38.326Z,2.80
2022-11-09T02:07:05.051Z,3.83
2022-11-09T02:09:36.057Z,2.35
2022-11-09T02:12:02.805Z,2.90
2022-11-09T02:14:29.948Z,2.65
2022-11-09T02:16:56.581Z,4.90
2022-11-09T02:19:22.991Z,4.45
2022-11-09T02:21:50.072Z,1.48
2022-11-09T02:24:16.858Z,1.63
2022-11-09T02:26:50.903Z,1.80
2022-11-09T02:29:20.070Z,1.23
2022-11-09T02:31:48.784Z,2.80
2022-11-09T02:34:17.553Z,4.32
2022-11-09T02:36:44.310Z,1.00
2022-11-09T02:39:17.499Z,2.45
2022-11-09T02:41:48.157Z,2.25
2022-11-09T02:44:15.626Z,2.25
2022-11-09T02:46:42.064Z,1.15
2022-11-09T02:49:08.460Z,1.90
2022-11-09T02:51:36.219Z,2.10
2022-11-09T02:54:02.873Z,2.53
2022-11-09T02:56:29.421Z,2.65
2022-11-09T02:58:55.968Z,3.03
2022-11-09T03:01:22.487Z,2.20
2022-11-09T03:03:49.217Z,2.45
2022-11-09T03:06:15.697Z,13.77
2022-11-09T03:08:44.452Z,5.20
2022-11-09T03:11:10.997Z,2.30
2022-11-09T03:13:37.442Z,1.90
2022-11-09T03:16:07.673Z,1.35
2022-11-09T03:18:37.635Z,3.13
2022-11-09T03:21:04.905Z,3.03
2022-11-09T03:23:32.354Z,1.63
2022-11-09T03:25:59.801Z,2.55
2022-11-09T03:28:26.185Z,2.60
2022-11-09T03:30:53.781Z,3.17
2022-11-09T03:33:20.567Z,1.95
2022-11-09T03:35:47.187Z,4.35
2022-11-09T03:38:17.261Z,3.30
2022-11-09T03:40:44.260Z,2.08
2022-11-09T03:43:11.046Z,2.78
2022-11-09T03:45:37.939Z,2.45
2022-11-09T03:48:04.492Z,3.20
2022-11-09T03:50:31.923Z,2.67
2022-11-09T03:52:58.473Z,2.67
2022-11-09T03:55:25.309Z,1.77
2022-11-09T03:57:51.836Z,3.45
2022-11-09T04:00:19.704Z,2.30
2022-11-09T04:02:47.077Z,3.08
2022-11-09T04:05:13.944Z,2.85
2022-11-09T04:07:40.354Z,2.03
2022-11-09T04:10:07.280Z,2.50
2022-11-09T04:12:33.722Z,1.83
2022-11-09T04:15:00.218Z,1.50
2022-11-09T04:17:26.795Z,2.13
2022-11-09T04:19:53.216Z,1.42
2022-11-09T04:22:19.578Z,1.70
2022-11-09T04:24:45.975Z,1.42
2022-11-09T04:27:12.418Z,2.25
2022-11-09T04:29:38.888Z,1.60
2022-11-09T04:32:05.502Z,1.67
2022-11-09T04:34:31.995Z,4.80
2022-11-09T04:36:58.524Z,3.00
2022-11-09T04:39:24.985Z,2.97
2022-11-09T04:41:51.397Z,1.95
2022-11-09T04:44:17.803Z,2.20
2022-11-09T04:46:44.183Z,2.22
2022-11-09T04:49:10.553Z,1.90
2022-11-09T04:51:36.949Z,1.60
2022-11-09T04:54:03.381Z,2.40
2022-11-09T04:56:29.849Z,2.67
2022-11-09T04:58:56.260Z,4.00
2022-11-09T05:01:23.586Z,2.45
2022-11-09T05:03:50.035Z,3.97
2022-11-09T05:06:34.708Z,4.10
2022-11-09T05:09:02.398Z,2.50
2022-11-09T05:11:29.411Z,5.50
2022-11-09T05:13:55.802Z,2.60
2022-11-09T05:16:23.422Z,2.65
2022-11-09T05:18:50.198Z,2.90
2022-11-09T05:21:16.920Z,2.67
2022-11-09T05:24:02.875Z,2.35
2022-11-09T05:26:31.040Z,1.40
2022-11-09T05:28:59.101Z,2.40
2022-11-09T05:31:26.040Z,2.13
2022-11-09T05:33:52.471Z,1.88
2022-11-09T05:36:19.112Z,3.60
2022-11-09T05:38:45.671Z,3.53
2022-11-09T05:41:12.228Z,3.55
2022-11-09T05:43:38.640Z,2.42
2022-11-09T05:46:06.729Z,1.90
2022-11-09T05:48:33.469Z,2.70
2022-11-09T05:51:04.266Z,2.15
2022-11-09T05:53:31.305Z,1.42
2022-11-09T05:56:01.631Z,2.00
2022-11-09T05:58:28.041Z,2.50
2022-11-09T06:00:54.443Z,1.77
2022-11-09T06:03:21.158Z,2.00
2022-11-09T06:05:47.886Z,1.20
2022-11-09T06:08:15.112Z,1.30
2022-11-09T06:10:42.291Z,1.17
2022-11-09T06:13:09.126Z,1.23
2022-11-09T06:15:35.663Z,2.58
2022-11-09T06:18:02.035Z,1.10
2022-11-09T06:20:28.660Z,1.38
2022-11-09T06:22:59.913Z,1.30
2022-11-09T06:25:30.435Z,1.25
2022-11-09T06:27:58.220Z,0.80
2022-11-09T06:30:24.783Z,1.40
2022-11-09T06:32:51.176Z,3.92
2022-11-09T06:35:17.539Z,1.15
2022-11-09T06:37:44.353Z,1.67
2022-11-09T06:40:12.545Z,1.92
2022-11-09T06:42:38.947Z,2.85
2022-11-09T06:45:05.603Z,1.50
2022-11-09T06:47:31.960Z,2.75
2022-11-09T06:49:58.305Z,3.25
2022-11-09T06:52:25.961Z,2.08
2022-11-09T06:54:52.336Z,2.20
2022-11-09T06:57:18.868Z,2.65
2022-11-09T06:59:45.223Z,2.78
2022-11-09T07:02:14.856Z,2.08
2022-11-09T07:04:41.232Z,2.40
2022-11-09T07:07:07.636Z,3.50
2022-11-09T07:09:34.107Z,3.10
2022-11-09T07:12:00.773Z,1.38
2022-11-09T07:14:27.182Z,2.22
2022-11-09T07:16:53.741Z,3.10
2022-11-09T07:19:20.169Z,2.75
2022-11-09T07:21:46.521Z,1.58
2022-11-09T07:24:12.887Z,2.67
2022-11-09T07:26:39.265Z,1.50
2022-11-09T07:29:05.619Z,1.52
2022-11-09T07:31:32.028Z,4.53
2022-11-09T07:34:01.270Z,2.95
2022-11-09T07:36:27.783Z,2.50
2022-11-09T07:38:54.199Z,0.70
2022-11-09T07:41:20.604Z,1.20
2022-11-09T07:43:46.946Z,1.30
2022-11-09T07:46:13.395Z,1.20
2022-11-09T07:48:39.759Z,1.30
2022-11-09T07:51:06.152Z,1.83
2022-11-09T07:53:32.505Z,1.00
2022-11-09T07:55:59.942Z,1.30
2022-11-09T07:58:26.345Z,1.55
2022-11-09T08:00:52.863Z,2.55
2022-11-09T08:03:20.299Z,1.38
2022-11-09T08:05:47.040Z,0.80
2022-11-09T08:08:18.420Z,3.42
2022-11-09T08:10:50.388Z,0.90
2022-11-09T08:13:16.989Z,1.10
2022-11-09T08:15:46.799Z,0.95
2022-11-09T08:18:21.971Z,1.42
2022-11-09T08:20:49.327Z,1.02
2022-11-09T08:23:17.160Z,1.38
2022-11-09T08:25:43.972Z,0.70
2022-11-09T08:28:14.555Z,1.55
2022-11-09T08:30:42.445Z,0.65
2022-11-09T08:33:09.133Z,2.13
2022-11-09T08:35:35.566Z,1.65
2022-11-09T08:38:04.181Z,1.33
2022-11-09T08:40:32.434Z,2.65
2022-11-09T08:43:02.920Z,1.70
2022-11-09T08:45:29.811Z,2.03
2022-11-09T08:48:02.796Z,1.90
2022-11-09T08:50:29.660Z,2.53
2022-11-09T08:52:56.470Z,4.57
2022-11-09T08:55:22.974Z,2.75
2022-11-09T08:57:49.352Z,4.68
2022-11-09T09:00:15.966Z,3.70
2022-11-09T09:02:42.335Z,1.45
2022-11-09T09:05:09.411Z,4.05
2022-11-09T09:07:35.783Z,5.47
2022-11-09T09:10:02.170Z,2.80
2022-11-09T09:12:28.522Z,2.28
2022-11-09T09:14:55.259Z,3.10
2022-11-09T09:17:21.617Z,2.30
2022-11-09T09:19:50.110Z,2.67
2022-11-09T09:22:16.852Z,1.85
2022-11-09T09:24:43.517Z,2.50
2022-11-09T09:27:09.957Z,2.83
2022-11-09T09:29:36.803Z,1.63
2022-11-09T09:32:03.178Z,1.13
2022-11-09T09:34:29.543Z,2.25
2022-11-09T09:36:56.162Z,1.58
2022-11-09T09:39:22.547Z,1.85
2022-11-09T09:41:51.389Z,2.75
2022-11-09T09:44:17.759Z,2.50
2022-11-09T09:46:47.755Z,1.92
2022-11-09T09:49:20.489Z,3.17
2022-11-09T09:52:01.891Z,1.85
2022-11-09T09:54:33.908Z,2.38
2022-11-09T09:57:01.416Z,2.65
2022-11-09T09:59:34.912Z,2.50
2022-11-09T10:02:01.384Z,1.98
2022-11-09T10:04:39.991Z,4.57
2022-11-09T10:07:13.717Z,3.30
2022-11-09T10:12:06.451Z,1.85
2022-11-09T10:14:35.944Z,2.03
2022-11-09T10:17:21.546Z,2.88
2022-11-09T10:19:51.029Z,5.90
2022-11-09T10:22:17.399Z,4.93
2022-11-09T10:25:50.324Z,3.65
2022-11-09T10:28:02.337Z,3.03
2022-11-09T10:30:29.561Z,5.05
2022-11-09T10:32:57.235Z,3.88
2022-11-09T10:35:34.096Z,3.78
2022-11-09T10:38:00.480Z,4.90
2022-11-09T10:40:35.956Z,8.65
2022-11-09T10:43:21.041Z,3.88
2022-11-09T10:46:07.285Z,3.17
2022-11-09T10:48:53.323Z,6.97
2022-11-09T10:51:38.202Z,13.77
2022-11-09T10:54:24.185Z,6.95
2022-11-09T10:57:23.254Z,8.82
2022-11-09T11:00:14.124Z,6.95
2022-11-09T11:03:09.085Z,6.57
2022-11-09T11:06:01.626Z,3.50
2022-11-09T11:08:47.607Z,3.13
2022-11-09T11:11:35.406Z,2.15
2022-11-09T11:14:23.413Z,7.65
2022-11-09T11:17:42.608Z,2.72
2022-11-09T11:20:29.886Z,1.33
2022-11-09T11:23:19.903Z,3.58
2022-11-09T11:26:25.267Z,5.10
2022-11-09T11:29:28.775Z,2.97
2022-11-09T11:32:17.555Z,4.10
2022-11-09T11:35:04.125Z,6.07
2022-11-09T11:38:09.210Z,8.65
2022-11-09T11:41:11.948Z,4.85
2022-11-09T11:43:56.947Z,3.47
2022-11-09T11:46:41.748Z,4.38
2022-11-09T11:49:38.350Z,4.82
2022-11-09T11:52:40.058Z,4.68
2022-11-09T11:55:46.120Z,4.00
2022-11-09T11:58:43.279Z,2.92
2022-11-09T12:01:50.567Z,3.85
2022-11-09T12:04:44.657Z,9.60
2022-11-09T12:07:32.439Z,8.30
2022-11-09T12:10:41.101Z,4.90
2022-11-09T12:13:35.556Z,4.05
2022-11-09T12:16:23.556Z,2.95
2022-11-09T12:19:35.086Z,4.50
2022-11-09T12:22:39.346Z,4.03
2022-11-09T12:25:27.271Z,5.50
2022-11-09T12:28:21.214Z,3.75
2022-11-09T12:31:24.943Z,4.70
2022-11-09T12:34:21.962Z,2.20
2022-11-09T12:37:12.837Z,3.78
2022-11-09T12:40:04.447Z,2.40
2022-11-09T12:42:53.928Z,3.45
2022-11-09T12:45:40.059Z,6.00
2022-11-09T12:48:25.982Z,2.75
2022-11-09T12:51:10.855Z,4.72
2022-11-09T12:53:56.439Z,3.35
2022-11-09T12:56:47.163Z,4.72
2022-11-09T12:59:47.324Z,4.18
2022-11-09T13:02:32.283Z,4.72
2022-11-09T13:05:29.524Z,3.25
2022-11-09T13:08:26.319Z,4.30
2022-11-09T13:11:17.238Z,3.30
2022-11-09T13:14:21.013Z,3.63
2022-11-09T13:17:21.722Z,2.23
2022-11-09T13:20:52.821Z,4.18
2022-11-09T13:26:43.047Z,3.60
2022-11-09T13:29:29.570Z,3.78
2022-11-09T13:32:20.736Z,4.57
2022-11-09T13:35:25.467Z,2.88
2022-11-09T13:38:16.719Z,2.53
2022-11-09T13:41:02.474Z,4.28
2022-11-09T13:43:47.501Z,5.10
2022-11-09T13:46:35.324Z,3.97
2022-11-09T13:49:36.580Z,2.85
2022-11-09T13:52:50.876Z,5.15
2022-11-09T13:55:40.005Z,2.97
2022-11-09T13:58:31.774Z,6.57
2022-11-09T14:01:33.033Z,3.08
2022-11-09T14:04:30.783Z,4.27
2022-11-09T14:07:15.977Z,5.05
2022-11-09T14:10:10.068Z,3.97
2022-11-09T14:18:27.944Z,2.72
2022-11-09T14:21:35.271Z,1.70
2022-11-09T14:24:24.546Z,4.10
2022-11-09T14:27:09.539Z,4.82
2022-11-09T14:30:01.025Z,2.88
2022-11-09T14:32:50.046Z,3.10
2022-11-09T14:35:35.832Z,1.67
2022-11-09T14:38:31.309Z,3.25
2022-11-09T14:41:24.393Z,2.88
2022-11-09T14:44:15.585Z,2.73
2022-11-09T14:47:00.907Z,2.63
2022-11-09T14:49:46.103Z,2.53
2022-11-09T14:52:31.323Z,5.03
2022-11-09T14:55:17.120Z,2.45
2022-11-09T14:58:02.516Z,3.67
2022-11-09T15:01:06.221Z,2.35
2022-11-09T15:04:09.981Z,2.55
2022-11-09T15:06:57.183Z,2.60
2022-11-09T15:09:43.760Z,2.50
2022-11-09T15:12:32.173Z,3.45
2022-11-09T15:15:19.884Z,5.78
2022-11-09T15:18:04.689Z,2.88
2022-11-09T15:21:09.523Z,2.60
2022-11-09T15:24:05.629Z,4.43
2022-11-09T15:26:51.577Z,2.92
2022-11-09T15:29:36.737Z,1.20
2022-11-09T15:32:23.736Z,1.75
2022-11-09T15:35:15.143Z,7.53
2022-11-09T15:38:00.233Z,2.85
2022-11-09T15:40:44.961Z,3.25
2022-11-09T15:43:29.729Z,4.20
2022-11-09T15:46:16.764Z,3.47
2022-11-09T15:49:11.704Z,1.80
2022-11-09T15:51:56.856Z,3.63
2022-11-09T15:54:45.551Z,2.97
2022-11-09T15:57:31.702Z,4.80
2022-11-09T16:00:20.727Z,6.85
2022-11-09T16:03:06.935Z,4.97
2022-11-09T16:05:51.830Z,7.28
2022-11-09T16:08:36.669Z,7.68
2022-11-09T16:11:21.619Z,10.38
2022-11-09T16:14:06.640Z,4.82
2022-11-09T16:16:51.482Z,5.45
2022-11-09T16:19:36.319Z,7.00
2022-11-09T16:22:21.186Z,5.40
2022-11-09T16:25:06.163Z,5.03
2022-11-09T16:27:51.577Z,7.00
2022-11-09T16:30:36.430Z,9.60
2022-11-09T16:33:21.279Z,8.23
2022-11-09T16:36:08.177Z,5.35
2022-11-09T16:38:54.199Z,4.40
2022-11-09T16:41:40.836Z,4.70
2022-11-09T16:44:29.712Z,8.52
2022-11-09T16:47:17.087Z,5.88
2022-11-09T16:50:01.905Z,6.28
2022-11-09T16:52:46.533Z,5.65
2022-11-09T16:55:31.308Z,15.95
2022-11-09T16:58:16.218Z,7.13
2022-11-09T17:01:11.489Z,5.32
2022-11-09T17:03:57.536Z,8.50
2022-11-09T17:06:42.659Z,6.68
2022-11-09T17:09:27.553Z,6.65
2022-11-09T17:12:12.253Z,7.47
2022-11-09T17:14:57.203Z,11.07
2022-11-09T17:17:41.948Z,13.05
2022-11-09T17:20:26.940Z,4.60
2022-11-09T17:23:12.430Z,7.63
2022-11-09T17:26:01.705Z,9.00
2022-11-09T17:28:46.978Z,6.28
2022-11-09T17:31:32.664Z,7.28
2022-11-09T17:34:17.589Z,7.60
2022-11-09T17:37:04.647Z,6.60
2022-11-09T17:39:50.196Z,3.72
2022-11-09T17:42:35.350Z,4.90
2022-11-09T17:45:20.323Z,3.72
2022-11-09T17:48:05.341Z,7.57
2022-11-09T17:50:50.354Z,5.00
2022-11-09T17:53:35.748Z,4.28
2022-11-09T17:56:20.551Z,4.45
2022-11-09T17:59:05.569Z,5.97
2022-11-09T18:01:51.007Z,9.75
2022-11-09T18:04:36.901Z,4.65
2022-11-09T18:07:22.242Z,6.57
2022-11-09T18:10:07.759Z,8.55
2022-11-09T18:12:52.857Z,5.18
2022-11-09T18:15:39.050Z,7.30
2022-11-09T18:18:25.237Z,8.75
2022-11-09T18:21:11.117Z,5.25
2022-11-09T18:23:56.163Z,5.13
2022-11-09T18:26:40.983Z,3.97
2022-11-09T18:29:25.993Z,4.93
2022-11-09T18:32:10.961Z,5.03
2022-11-09T18:34:56.051Z,5.43
2022-11-09T18:37:41.190Z,7.97
2022-11-09T18:40:26.109Z,7.35
2022-11-09T18:43:10.915Z,8.60
2022-11-09T18:46:00.293Z,4.57
2022-11-09T18:48:45.519Z,5.53
2022-11-09T18:51:30.353Z,5.95
2022-11-09T18:54:15.229Z,4.90
2022-11-09T18:57:00.054Z,4.45
2022-11-09T18:59:45.059Z,6.32
2022-11-09T19:02:29.998Z,7.07
2022-11-09T19:05:14.611Z,5.03
2022-11-09T19:07:59.511Z,6.25
2022-11-09T19:10:44.188Z,8.00
2022-11-09T19:13:29.139Z,6.28
2022-11-09T19:16:14.283Z,4.95
2022-11-09T19:18:59.177Z,4.68
2022-11-09T19:21:51.149Z,9.23
2022-11-09T19:24:35.970Z,6.38
2022-11-09T19:27:20.999Z,7.28
2022-11-09T19:30:11.428Z,9.60
2022-11-09T19:32:56.590Z,12.05
2022-11-09T19:35:41.283Z,14.18
2022-11-09T19:38:26.037Z,7.72
2022-11-09T19:41:10.920Z,9.65
2022-11-09T19:43:58.504Z,6.25
2022-11-09T19:46:43.988Z,8.38
2022-11-09T19:49:29.018Z,6.15
2022-11-09T19:52:14.047Z,5.88
2022-11-09T19:54:58.818Z,7.97
2022-11-09T19:57:43.661Z,10.32
2022-11-09T20:00:28.412Z,10.30
2022-11-09T20:03:13.096Z,8.10
2022-11-09T20:05:57.959Z,4.75
2022-11-09T20:08:43.259Z,17.80
2022-11-09T20:11:46.903Z,7.28
2022-11-09T20:14:31.724Z,13.85
2022-11-09T20:17:16.686Z,11.90
2022-11-09T20:20:01.914Z,17.45
2022-11-09T20:22:49.346Z,12.55
2022-11-09T20:25:34.721Z,16.25
2022-11-09T20:28:20.148Z,12.75
2022-11-09T20:31:12.966Z,11.55
2022-11-09T20:34:00.724Z,12.43
2022-11-09T20:36:45.912Z,8.73
2022-11-09T20:39:30.598Z,8.80
2022-11-09T20:42:15.512Z,7.57
2022-11-09T20:45:00.304Z,10.02
2022-11-09T20:48:05.058Z,6.30
2022-11-09T20:50:50.106Z,13.02
2022-11-09T20:53:35.297Z,6.40
2022-11-09T20:56:20.329Z,6.80
2022-11-09T20:59:05.657Z,5.63
2022-11-09T21:01:50.624Z,5.93
2022-11-09T21:04:35.895Z,11.77
2022-11-09T21:07:20.722Z,11.65
2022-11-09T21:10:06.948Z,8.23
2022-11-09T21:12:55.198Z,8.18
2022-11-09T21:15:39.979Z,12.80
2022-11-09T21:18:24.909Z,11.40
2022-11-09T21:21:14.345Z,13.63
2022-11-09T21:24:18.028Z,13.52
2022-11-09T21:27:22.190Z,6.97
2022-11-09T21:30:07.549Z,9.02
2022-11-09T21:32:52.733Z,7.75
2022-11-09T21:35:38.016Z,6.93
2022-11-09T21:38:23.055Z,7.25
2022-11-09T21:41:27.351Z,7.85
2022-11-09T21:44:12.402Z,6.72
2022-11-09T21:46:57.740Z,8.75
2022-11-09T21:49:43.267Z,9.35
2022-11-09T21:52:28.252Z,10.43
2022-11-09T21:55:13.133Z,8.23
2022-11-09T21:57:57.861Z,7.60
2022-11-09T22:00:42.714Z,8.20
2022-11-09T22:03:27.803Z,8.88
2022-11-09T22:06:13.793Z,9.07
2022-11-09T22:08:59.016Z,8.80
2022-11-09T22:12:02.776Z,8.20
2022-11-09T22:15:06.534Z,15.00
2022-11-09T22:17:52.966Z,5.38
2022-11-09T22:20:56.339Z,9.35
2022-11-09T22:23:41.453Z,9.55
2022-11-09T22:26:27.363Z,9.27
2022-11-09T22:29:12.387Z,8.85
2022-11-09T22:31:57.893Z,13.45
2022-11-09T22:34:44.672Z,10.02
2022-11-09T22:37:29.294Z,10.63
2022-11-09T22:40:14.484Z,8.93
2022-11-09T22:42:59.412Z,5.82
2022-11-09T22:45:44.649Z,8.07
2022-11-09T22:48:33.068Z,5.25
2022-11-09T22:51:18.318Z,9.05
2022-11-09T22:54:03.443Z,9.60
2022-11-09T22:56:58.629Z,13.68
2022-11-09T22:59:43.693Z,7.93
2022-11-09T23:02:28.711Z,8.07
2022-11-09T23:05:14.284Z,7.00
2022-11-09T23:07:58.949Z,8.70
2022-11-09T23:10:43.966Z,11.05
2022-11-09T23:13:28.820Z,6.05
2022-11-09T23:16:13.706Z,11.45
2022-11-09T23:18:58.638Z,8.60
2022-11-09T23:21:43.332Z,7.50
2022-11-09T23:24:47.001Z,11.23
2022-11-09T23:27:32.007Z,11.70
2022-11-09T23:30:16.923Z,14.70
2022-11-09T23:33:02.231Z,13.55
2022-11-09T23:35:47.102Z,13.82
2022-11-09T23:38:33.470Z,10.73
2022-11-09T23:41:18.737Z,11.85
2022-11-09T23:44:03.501Z,12.50
2022-11-09T23:46:48.226Z,14.43
2022-11-09T23:49:33.265Z,10.10
2022-11-09T23:52:18.308Z,10.07
2022-11-09T23:55:03.486Z,8.38
2022-11-09T23:57:48.237Z,6.72
